sensor_id;sensor_type;location;lat;lon;timestamp;pressure;altitude;pressure_sealevel;temperature;humidity
22104;BME280;11218;48.886;9.426;2022-10-17T00:01:06;98585.00;;;15.36;86.49
22104;BME280;11218;48.886;9.426;2022-10-17T00:03:36;98582.53;;;15.35;86.32
22104;BME280;11218;48.886;9.426;2022-10-17T00:06:05;98586.06;;;15.35;86.19
22104;BME280;11218;48.886;9.426;2022-10-17T00:08:35;98570.88;;;15.29;85.93
22104;BME280;11218;48.886;9.426;2022-10-17T00:11:05;98579.81;;;15.30;86.14
22104;BME280;11218;48.886;9.426;2022-10-17T00:13:34;98587.13;;;15.29;86.14
22104;BME280;11218;48.886;9.426;2022-10-17T00:16:02;98584.69;;;15.28;85.98
22104;BME280;11218;48.886;9.426;2022-10-17T00:18:30;98590.38;;;15.26;85.85
22104;BME280;11218;48.886;9.426;2022-10-17T00:20:59;98583.59;;;15.24;85.75
22104;BME280;11218;48.886;9.426;2022-10-17T00:23:26;98584.69;;;15.23;85.59
22104;BME280;11218;48.886;9.426;2022-10-17T00:26:02;98589.81;;;15.19;85.71
22104;BME280;11218;48.886;9.426;2022-10-17T00:28:31;98585.19;;;15.15;86.24
22104;BME280;11218;48.886;9.426;2022-10-17T00:31:00;98593.84;;;15.11;86.11
22104;BME280;11218;48.886;9.426;2022-10-17T00:33:29;98589.50;;;15.10;85.88
22104;BME280;11218;48.886;9.426;2022-10-17T00:36:02;98590.84;;;15.08;86.22
22104;BME280;11218;48.886;9.426;2022-10-17T00:38:30;98588.41;;;15.06;86.04
22104;BME280;11218;48.886;9.426;2022-10-17T00:41:00;98599.28;;;15.11;84.90
22104;BME280;11218;48.886;9.426;2022-10-17T00:43:28;98602.25;;;15.10;85.55
22104;BME280;11218;48.886;9.426;2022-10-17T00:45:56;98601.72;;;15.13;85.46
22104;BME280;11218;48.886;9.426;2022-10-17T00:48:24;98601.19;;;15.11;85.37
22104;BME280;11218;48.886;9.426;2022-10-17T00:50:52;98602.28;;;15.15;85.46
22104;BME280;11218;48.886;9.426;2022-10-17T00:53:21;98601.47;;;15.15;85.75
22104;BME280;11218;48.886;9.426;2022-10-17T00:55:51;98605.53;;;15.12;85.50
22104;BME280;11218;48.886;9.426;2022-10-17T00:58:22;98600.09;;;15.12;85.85
22104;BME280;11218;48.886;9.426;2022-10-17T01:00:50;98601.19;;;15.16;85.55
22104;BME280;11218;48.886;9.426;2022-10-17T01:03:18;98610.41;;;15.15;85.89
22104;BME280;11218;48.886;9.426;2022-10-17T01:05:46;98602.53;;;15.08;86.22
22104;BME280;11218;48.886;9.426;2022-10-17T01:08:14;98606.31;;;15.07;86.38
22104;BME280;11218;48.886;9.426;2022-10-17T01:10:50;98596.25;;;15.03;86.08
22104;BME280;11218;48.886;9.426;2022-10-17T01:13:25;98594.63;;;15.02;86.11
22104;BME280;11218;48.886;9.426;2022-10-17T01:16:03;98597.03;;;14.93;85.85
22104;BME280;11218;48.886;9.426;2022-10-17T01:18:45;98597.00;;;14.88;86.21
22104;BME280;11218;48.886;9.426;2022-10-17T01:21:43;98603.25;;;14.89;86.73
22104;BME280;11218;48.886;9.426;2022-10-17T01:24:40;98603.50;;;14.87;86.55
22104;BME280;11218;48.886;9.426;2022-10-17T01:27:32;98598.91;;;14.88;86.49
22104;BME280;11218;48.886;9.426;2022-10-17T01:30:25;98594.00;;;14.79;86.51
22104;BME280;11218;48.886;9.426;2022-10-17T01:33:01;98599.94;;;14.76;86.54
22104;BME280;11218;48.886;9.426;2022-10-17T01:35:37;98592.91;;;14.75;86.34
22104;BME280;11218;48.886;9.426;2022-10-17T01:38:09;98591.53;;;14.73;86.61
22104;BME280;11218;48.886;9.426;2022-10-17T01:40:44;98595.56;;;14.70;86.93
22104;BME280;11218;48.886;9.426;2022-10-17T01:43:19;98598.81;;;14.67;86.92
22104;BME280;11218;48.886;9.426;2022-10-17T01:45:50;98603.19;;;14.73;86.17
22104;BME280;11218;48.886;9.426;2022-10-17T01:48:22;98597.19;;;14.66;86.75
22104;BME280;11218;48.886;9.426;2022-10-17T01:50:52;98588.50;;;14.64;86.95
22104;BME280;11218;48.886;9.426;2022-10-17T01:53:26;98594.47;;;14.66;87.29
22104;BME280;11218;48.886;9.426;2022-10-17T01:55:59;98596.09;;;14.67;87.36
22104;BME280;11218;48.886;9.426;2022-10-17T01:58:30;98594.47;;;14.66;86.93
22104;BME280;11218;48.886;9.426;2022-10-17T02:01:02;98591.19;;;14.59;86.57
22104;BME280;11218;48.886;9.426;2022-10-17T02:03:33;98592.25;;;14.58;86.37
22104;BME280;11218;48.886;9.426;2022-10-17T02:06:02;98590.81;;;14.45;86.47
22104;BME280;11218;48.886;9.426;2022-10-17T02:08:40;98596.16;;;14.40;87.04
22104;BME280;11218;48.886;9.426;2022-10-17T02:11:13;98595.94;;;14.42;87.42
22104;BME280;11218;48.886;9.426;2022-10-17T02:13:56;98592.72;;;14.45;87.85
22104;BME280;11218;48.886;9.426;2022-10-17T02:16:34;98596.50;;;14.44;87.67
22104;BME280;11218;48.886;9.426;2022-10-17T02:19:22;98592.72;;;14.45;87.40
22104;BME280;11218;48.886;9.426;2022-10-17T02:22:03;98588.63;;;14.42;87.38
22104;BME280;11218;48.886;9.426;2022-10-17T02:24:43;98594.28;;;14.41;87.42
22104;BME280;11218;48.886;9.426;2022-10-17T02:27:16;98596.69;;;14.37;87.33
22104;BME280;11218;48.886;9.426;2022-10-17T02:29:48;98593.72;;;14.39;87.32
22104;BME280;11218;48.886;9.426;2022-10-17T02:32:23;98599.66;;;14.36;87.39
22104;BME280;11218;48.886;9.426;2022-10-17T02:34:57;98593.44;;;14.35;87.56
22104;BME280;11218;48.886;9.426;2022-10-17T02:37:30;98600.72;;;14.35;87.63
22104;BME280;11218;48.886;9.426;2022-10-17T02:39:59;98592.06;;;14.33;87.68
22104;BME280;11218;48.886;9.426;2022-10-17T02:42:28;98600.69;;;14.30;87.41
22104;BME280;11218;48.886;9.426;2022-10-17T02:44:58;98600.44;;;14.31;87.78
22104;BME280;11218;48.886;9.426;2022-10-17T02:47:31;98601.25;;;14.32;87.61
22104;BME280;11218;48.886;9.426;2022-10-17T02:50:03;98605.03;;;14.31;87.47
22104;BME280;11218;48.886;9.426;2022-10-17T02:52:34;98598.81;;;14.30;87.64
22104;BME280;11218;48.886;9.426;2022-10-17T02:55:09;98604.47;;;14.29;87.61
22104;BME280;11218;48.886;9.426;2022-10-17T02:57:43;98601.22;;;14.27;87.63
22104;BME280;11218;48.886;9.426;2022-10-17T03:00:15;98601.22;;;14.27;87.74
22104;BME280;11218;48.886;9.426;2022-10-17T03:02:45;98600.38;;;14.21;88.40
22104;BME280;11218;48.886;9.426;2022-10-17T03:05:18;98607.94;;;14.19;88.14
22104;BME280;11218;48.886;9.426;2022-10-17T03:07:47;98599.81;;;14.19;88.14
22104;BME280;11218;48.886;9.426;2022-10-17T03:10:15;98606.25;;;14.13;88.03
22104;BME280;11218;48.886;9.426;2022-10-17T03:12:43;98605.44;;;14.12;88.24
22104;BME280;11218;48.886;9.426;2022-10-17T03:15:12;98608.97;;;14.13;88.54
22104;BME280;11218;48.886;9.426;2022-10-17T03:17:40;98607.06;;;14.13;88.48
22104;BME280;11218;48.886;9.426;2022-10-17T03:20:09;98618.44;;;14.10;88.54
22104;BME280;11218;48.886;9.426;2022-10-17T03:22:38;98613.81;;;14.06;88.28
22104;BME280;11218;48.886;9.426;2022-10-17T03:25:06;98619.16;;;14.01;88.81
22104;BME280;11218;48.886;9.426;2022-10-17T03:27:34;98621.88;;;14.01;89.05
22104;BME280;11218;48.886;9.426;2022-10-17T03:30:03;98615.66;;;14.00;89.53
22104;BME280;11218;48.886;9.426;2022-10-17T03:32:32;98622.69;;;14.01;89.30
22104;BME280;11218;48.886;9.426;2022-10-17T03:35:00;98624.31;;;14.02;89.04
22104;BME280;11218;48.886;9.426;2022-10-17T03:37:28;98622.69;;;14.01;88.61
22104;BME280;11218;48.886;9.426;2022-10-17T03:39:58;98624.28;;;13.97;88.67
22104;BME280;11218;48.886;9.426;2022-10-17T03:42:26;98617.25;;;13.96;88.80
22104;BME280;11218;48.886;9.426;2022-10-17T03:44:54;98623.97;;;13.94;88.75
22104;BME280;11218;48.886;9.426;2022-10-17T03:47:22;98629.09;;;13.90;88.91
22104;BME280;11218;48.886;9.426;2022-10-17T03:49:50;98631.78;;;13.90;89.34
22104;BME280;11218;48.886;9.426;2022-10-17T03:52:19;98634.75;;;13.89;89.36
22104;BME280;11218;48.886;9.426;2022-10-17T03:54:48;98629.34;;;13.89;89.09
22104;BME280;11218;48.886;9.426;2022-10-17T03:57:18;98623.63;;;13.85;88.88
22104;BME280;11218;48.886;9.426;2022-10-17T03:59:46;98630.16;;;13.89;88.93
22104;BME280;11218;48.886;9.426;2022-10-17T04:02:14;98625.81;;;13.88;88.57
22104;BME280;11218;48.886;9.426;2022-10-17T04:04:42;98638.28;;;13.89;88.58
22104;BME280;11218;48.886;9.426;2022-10-17T04:07:10;98637.16;;;13.85;88.90
22104;BME280;11218;48.886;9.426;2022-10-17T04:09:38;98626.84;;;13.82;88.97
22104;BME280;11218;48.886;9.426;2022-10-17T04:12:05;98633.84;;;13.78;88.45
22104;BME280;11218;48.886;9.426;2022-10-17T04:14:35;98632.75;;;13.79;88.73
22104;BME280;11218;48.886;9.426;2022-10-17T04:17:03;98639.81;;;13.80;88.26
22104;BME280;11218;48.886;9.426;2022-10-17T04:19:32;98634.03;;;13.71;88.75
22104;BME280;11218;48.886;9.426;2022-10-17T04:22:00;98641.91;;;13.73;88.67
22104;BME280;11218;48.886;9.426;2022-10-17T04:24:29;98647.00;;;13.69;88.60
22104;BME280;11218;48.886;9.426;2022-10-17T04:26:57;98641.84;;;13.68;87.93
22104;BME280;11218;48.886;9.426;2022-10-17T04:29:26;98656.41;;;13.62;87.76
22104;BME280;11218;48.886;9.426;2022-10-17T04:31:55;98647.16;;;13.58;88.24
22104;BME280;11218;48.886;9.426;2022-10-17T04:34:23;98646.34;;;13.57;88.23
22104;BME280;11218;48.886;9.426;2022-10-17T04:36:51;98650.94;;;13.57;88.54
22104;BME280;11218;48.886;9.426;2022-10-17T04:39:19;98650.13;;;13.56;88.72
22104;BME280;11218;48.886;9.426;2022-10-17T04:41:47;98658.53;;;13.60;88.45
22104;BME280;11218;48.886;9.426;2022-10-17T04:44:15;98655.28;;;13.58;88.76
22104;BME280;11218;48.886;9.426;2022-10-17T04:46:43;98659.03;;;13.57;88.44
22104;BME280;11218;48.886;9.426;2022-10-17T04:49:13;98661.75;;;13.57;88.50
22104;BME280;11218;48.886;9.426;2022-10-17T04:51:41;98663.38;;;13.58;88.86
22104;BME280;11218;48.886;9.426;2022-10-17T04:54:09;98653.31;;;13.53;88.51
22104;BME280;11218;48.886;9.426;2022-10-17T04:56:37;98661.44;;;13.53;88.75
22104;BME280;11218;48.886;9.426;2022-10-17T04:59:05;98660.31;;;13.49;88.97
22104;BME280;11218;48.886;9.426;2022-10-17T05:01:32;98660.94;;;13.56;88.82
22104;BME280;11218;48.886;9.426;2022-10-17T05:04:00;98664.41;;;13.52;88.02
22104;BME280;11218;48.886;9.426;2022-10-17T05:06:30;98660.31;;;13.49;88.67
22104;BME280;11218;48.886;9.426;2022-10-17T05:08:59;98654.84;;;13.44;87.88
22104;BME280;11218;48.886;9.426;2022-10-17T05:11:28;98654.84;;;13.44;87.46
22104;BME280;11218;48.886;9.426;2022-10-17T05:13:58;98656.47;;;13.45;87.75
22104;BME280;11218;48.886;9.426;2022-10-17T05:16:27;98664.28;;;13.41;88.04
22104;BME280;11218;48.886;9.426;2022-10-17T05:18:56;98657.84;;;13.47;87.75
22104;BME280;11218;48.886;9.426;2022-10-17T05:21:26;98670.81;;;13.45;88.49
22104;BME280;11218;48.886;9.426;2022-10-17T05:23:56;98675.66;;;13.43;88.30
22104;BME280;11218;48.886;9.426;2022-10-17T05:26:25;98677.03;;;13.46;87.79
22104;BME280;11218;48.886;9.426;2022-10-17T05:28:53;98668.56;;;13.37;87.64
22104;BME280;11218;48.886;9.426;2022-10-17T05:31:21;98672.06;;;13.38;87.64
22104;BME280;11218;48.886;9.426;2022-10-17T05:33:50;98668.03;;;13.40;87.35
22104;BME280;11218;48.886;9.426;2022-10-17T05:36:17;98669.13;;;13.39;87.63
22104;BME280;11218;48.886;9.426;2022-10-17T05:38:48;98666.47;;;13.44;87.83
22104;BME280;11218;48.886;9.426;2022-10-17T05:41:18;98680.81;;;13.45;88.14
22104;BME280;11218;48.886;9.426;2022-10-17T05:43:46;98686.78;;;13.47;87.67
22104;BME280;11218;48.886;9.426;2022-10-17T05:46:16;98688.44;;;13.48;87.71
22104;BME280;11218;48.886;9.426;2022-10-17T05:48:44;98691.00;;;13.38;87.74
22104;BME280;11218;48.886;9.426;2022-10-17T05:51:12;98683.34;;;13.30;88.77
22104;BME280;11218;48.886;9.426;2022-10-17T05:53:43;98694.50;;;13.33;88.71
22104;BME280;11218;48.886;9.426;2022-10-17T05:56:12;98691.28;;;13.36;88.95
22104;BME280;11218;48.886;9.426;2022-10-17T05:58:42;98685.31;;;13.34;89.14
22104;BME280;11218;48.886;9.426;2022-10-17T06:01:17;98692.38;;;13.40;89.10
22104;BME280;11218;48.886;9.426;2022-10-17T06:03:45;98692.63;;;13.39;88.93
22104;BME280;11218;48.886;9.426;2022-10-17T06:06:14;98691.56;;;13.40;88.90
22104;BME280;11218;48.886;9.426;2022-10-17T06:08:43;98698.63;;;13.41;89.50
22104;BME280;11218;48.886;9.426;2022-10-17T06:11:12;98703.53;;;13.44;89.07
22104;BME280;11218;48.886;9.426;2022-10-17T06:13:40;98705.41;;;13.43;89.04
22104;BME280;11218;48.886;9.426;2022-10-17T06:16:09;98708.69;;;13.45;88.62
22104;BME280;11218;48.886;9.426;2022-10-17T06:18:37;98712.69;;;13.43;88.38
22104;BME280;11218;48.886;9.426;2022-10-17T06:21:07;98703.78;;;13.42;88.24
22104;BME280;11218;48.886;9.426;2022-10-17T06:23:36;98710.63;;;13.50;87.72
22104;BME280;11218;48.886;9.426;2022-10-17T06:26:05;98696.59;;;13.53;87.62
22104;BME280;11218;48.886;9.426;2022-10-17T06:28:34;98706.03;;;13.51;87.85
22104;BME280;11218;48.886;9.426;2022-10-17T06:31:04;98706.78;;;13.46;88.12
22104;BME280;11218;48.886;9.426;2022-10-17T06:33:34;98708.44;;;13.47;88.81
22104;BME280;11218;48.886;9.426;2022-10-17T06:36:04;98706.09;;;13.56;88.39
22104;BME280;11218;48.886;9.426;2022-10-17T06:38:34;98707.94;;;13.50;88.60
22104;BME280;11218;48.886;9.426;2022-10-17T06:41:03;98710.88;;;13.48;88.54
22104;BME280;11218;48.886;9.426;2022-10-17T06:43:34;98723.91;;;13.52;88.78
22104;BME280;11218;48.886;9.426;2022-10-17T06:46:04;98718.19;;;13.48;89.15
22104;BME280;11218;48.886;9.426;2022-10-17T06:48:34;98723.66;;;13.53;88.76
22104;BME280;11218;48.886;9.426;2022-10-17T06:51:03;98719.88;;;13.54;88.85
22104;BME280;11218;48.886;9.426;2022-10-17T06:53:33;98737.16;;;13.53;88.86
22104;BME280;11218;48.886;9.426;2022-10-17T06:56:01;98731.44;;;13.49;89.28
22104;BME280;11218;48.886;9.426;2022-10-17T06:58:31;98735.59;;;13.57;89.63
22104;BME280;11218;48.886;9.426;2022-10-17T07:01:02;98735.66;;;13.62;88.95
22104;BME280;11218;48.886;9.426;2022-10-17T07:03:31;98746.56;;;13.67;89.29
22104;BME280;11218;48.886;9.426;2022-10-17T07:06:01;98746.38;;;13.74;89.63
22104;BME280;11218;48.886;9.426;2022-10-17T07:08:30;98749.69;;;13.81;89.43
22104;BME280;11218;48.886;9.426;2022-10-17T07:10:58;98750.63;;;13.92;88.90
22104;BME280;11218;48.886;9.426;2022-10-17T07:13:26;98754.78;;;13.99;88.70
22104;BME280;11218;48.886;9.426;2022-10-17T07:15:54;98757.88;;;14.13;88.50
22104;BME280;11218;48.886;9.426;2022-10-17T07:18:27;98752.56;;;14.23;87.98
22104;BME280;11218;48.886;9.426;2022-10-17T07:20:55;98759.72;;;14.34;88.09
22104;BME280;11218;48.886;9.426;2022-10-17T07:23:27;98759.91;;;14.50;88.02
22104;BME280;11218;48.886;9.426;2022-10-17T07:25:58;98748.41;;;14.69;87.31
22104;BME280;11218;48.886;9.426;2022-10-17T07:28:28;98743.69;;;14.92;86.96
22104;BME280;11218;48.886;9.426;2022-10-17T07:31:02;98749.03;;;15.19;85.96
22104;BME280;11218;48.886;9.426;2022-10-17T07:33:30;98760.28;;;15.42;85.07
22104;BME280;11218;48.886;9.426;2022-10-17T07:35:58;98752.25;;;15.63;84.52
22104;BME280;11218;48.886;9.426;2022-10-17T07:38:28;98758.56;;;15.84;83.60
22104;BME280;11218;48.886;9.426;2022-10-17T07:40:59;98748.34;;;16.06;82.05
22104;BME280;11218;48.886;9.426;2022-10-17T07:43:29;98748.38;;;16.21;81.50
22104;BME280;11218;48.886;9.426;2022-10-17T07:45:57;98741.31;;;16.35;81.07
22104;BME280;11218;48.886;9.426;2022-10-17T07:48:25;98754.63;;;16.52;80.31
22104;BME280;11218;48.886;9.426;2022-10-17T07:50:54;98754.69;;;16.67;80.10
22104;BME280;11218;48.886;9.426;2022-10-17T07:53:22;98761.75;;;16.84;79.61
22104;BME280;11218;48.886;9.426;2022-10-17T07:55:51;98762.03;;;16.97;78.97
22104;BME280;11218;48.886;9.426;2022-10-17T07:58:20;98757.09;;;17.09;78.72
22104;BME280;11218;48.886;9.426;2022-10-17T08:00:48;98759.78;;;17.25;78.51
22104;BME280;11218;48.886;9.426;2022-10-17T08:03:16;98768.44;;;17.42;77.78
22104;BME280;11218;48.886;9.426;2022-10-17T08:05:45;98770.59;;;17.60;77.39
22104;BME280;11218;48.886;9.426;2022-10-17T08:08:13;98764.59;;;17.73;76.80
22104;BME280;11218;48.886;9.426;2022-10-17T08:10:41;98769.38;;;17.92;76.31
22104;BME280;11218;48.886;9.426;2022-10-17T08:13:11;98772.59;;;18.04;75.55
22104;BME280;11218;48.886;9.426;2022-10-17T08:15:39;98776.09;;;18.15;74.35
22104;BME280;11218;48.886;9.426;2022-10-17T08:18:07;98787.47;;;18.27;73.95
22104;BME280;11218;48.886;9.426;2022-10-17T08:20:35;98776.50;;;18.37;73.76
22104;BME280;11218;48.886;9.426;2022-10-17T08:23:04;98778.03;;;18.53;73.31
22104;BME280;11218;48.886;9.426;2022-10-17T08:25:32;98778.22;;;18.67;73.41
22104;BME280;11218;48.886;9.426;2022-10-17T08:28:00;98779.47;;;18.80;72.94
22104;BME280;11218;48.886;9.426;2022-10-17T08:30:29;98780.22;;;18.90;72.76
22104;BME280;11218;48.886;9.426;2022-10-17T08:32:57;98785.31;;;19.02;72.42
22104;BME280;11218;48.886;9.426;2022-10-17T08:35:26;98796.03;;;19.22;72.15
22104;BME280;11218;48.886;9.426;2022-10-17T08:37:54;98792.31;;;19.37;71.32
22104;BME280;11218;48.886;9.426;2022-10-17T08:40:24;98798.78;;;19.46;70.49
22104;BME280;11218;48.886;9.426;2022-10-17T08:43:16;98796.28;;;19.55;69.90
22104;BME280;11218;48.886;9.426;2022-10-17T08:45:52;98803.78;;;19.68;69.17
22104;BME280;11218;48.886;9.426;2022-10-17T08:48:23;98801.00;;;19.73;68.60
22104;BME280;11218;48.886;9.426;2022-10-17T08:50:55;98804.66;;;19.87;68.44
22104;BME280;11218;48.886;9.426;2022-10-17T08:53:28;98810.28;;;19.96;67.82
22104;BME280;11218;48.886;9.426;2022-10-17T08:56:02;98808.53;;;20.05;68.15
22104;BME280;11218;48.886;9.426;2022-10-17T08:58:37;98814.22;;;20.09;68.89
22104;BME280;11218;48.886;9.426;2022-10-17T09:01:13;98802.84;;;20.20;68.48
22104;BME280;11218;48.886;9.426;2022-10-17T09:03:59;98802.25;;;20.23;68.70
22104;BME280;11218;48.886;9.426;2022-10-17T09:06:32;98789.56;;;20.32;68.77
22104;BME280;11218;48.886;9.426;2022-10-17T09:09:11;98800.91;;;20.45;67.35
22104;BME280;11218;48.886;9.426;2022-10-17T09:11:51;98804.53;;;20.59;66.93
22104;BME280;11218;48.886;9.426;2022-10-17T09:14:36;98810.38;;;20.71;66.33
22104;BME280;11218;48.886;9.426;2022-10-17T09:17:15;98803.91;;;20.81;66.41
22104;BME280;11218;48.886;9.426;2022-10-17T09:19:50;98800.19;;;20.90;65.90
22104;BME280;11218;48.886;9.426;2022-10-17T09:22:24;98809.56;;;21.03;65.20
22104;BME280;11218;48.886;9.426;2022-10-17T09:24:57;98806.28;;;21.20;64.39
22104;BME280;11218;48.886;9.426;2022-10-17T09:27:33;98807.53;;;21.27;64.54
22104;BME280;11218;48.886;9.426;2022-10-17T09:30:20;98811.00;;;21.33;64.61
22104;BME280;11218;48.886;9.426;2022-10-17T09:33:15;98805.22;;;21.35;65.18
22104;BME280;11218;48.886;9.426;2022-10-17T09:36:04;98808.31;;;21.47;65.21
22104;BME280;11218;48.886;9.426;2022-10-17T09:38:39;98807.41;;;21.51;64.62
22104;BME280;11218;48.886;9.426;2022-10-17T09:41:14;98808.22;;;21.52;65.21
22104;BME280;11218;48.886;9.426;2022-10-17T09:44:18;98807.78;;;21.58;64.93
22104;BME280;11218;48.886;9.426;2022-10-17T09:47:05;98804.53;;;21.56;65.07
22104;BME280;11218;48.886;9.426;2022-10-17T09:49:39;98801.91;;;21.65;65.84
22104;BME280;11218;48.886;9.426;2022-10-17T09:52:11;98803.44;;;21.71;65.04
22104;BME280;11218;48.886;9.426;2022-10-17T09:54:44;98807.59;;;21.69;64.76
22104;BME280;11218;48.886;9.426;2022-10-17T09:57:15;98802.50;;;21.62;64.28
22104;BME280;11218;48.886;9.426;2022-10-17T09:59:45;98805.97;;;21.68;64.42
22104;BME280;11218;48.886;9.426;2022-10-17T10:02:18;98803.84;;;21.78;64.51
22104;BME280;11218;48.886;9.426;2022-10-17T10:04:56;98796.53;;;21.87;63.98
22104;BME280;11218;48.886;9.426;2022-10-17T10:07:35;98799.28;;;22.01;62.94
22104;BME280;11218;48.886;9.426;2022-10-17T10:10:26;98794.72;;;22.10;63.69
22104;BME280;11218;48.886;9.426;2022-10-17T10:13:04;98794.13;;;22.13;61.84
22104;BME280;11218;48.886;9.426;2022-10-17T10:15:35;98795.31;;;22.21;61.73
22104;BME280;11218;48.886;9.426;2022-10-17T10:18:27;98795.38;;;22.29;62.20
22104;BME280;11218;48.886;9.426;2022-10-17T10:21:10;98789.28;;;22.33;61.45
22104;BME280;11218;48.886;9.426;2022-10-17T10:23:40;98794.03;;;22.41;60.82
22104;BME280;11218;48.886;9.426;2022-10-17T10:26:19;98794.22;;;22.44;61.04
22104;BME280;11218;48.886;9.426;2022-10-17T10:28:57;98792.19;;;22.50;61.00
22104;BME280;11218;48.886;9.426;2022-10-17T10:31:31;98799.81;;;22.53;61.12
22104;BME280;11218;48.886;9.426;2022-10-17T10:34:02;98794.91;;;22.63;61.58
22104;BME280;11218;48.886;9.426;2022-10-17T10:37:02;98799.53;;;22.77;61.57
22104;BME280;11218;48.886;9.426;2022-10-17T10:39:37;98802.19;;;22.82;61.32
22104;BME280;11218;48.886;9.426;2022-10-17T10:42:19;98806.75;;;22.86;60.03
22104;BME280;11218;48.886;9.426;2022-10-17T10:44:49;98810.28;;;22.87;60.32
22104;BME280;11218;48.886;9.426;2022-10-17T10:47:21;98812.41;;;22.90;60.41
22104;BME280;11218;48.886;9.426;2022-10-17T10:50:06;98813.97;;;23.05;60.14
22104;BME280;11218;48.886;9.426;2022-10-17T10:52:41;98819.13;;;23.06;60.28
22104;BME280;11218;48.886;9.426;2022-10-17T10:55:21;98818.88;;;23.16;60.79
22104;BME280;11218;48.886;9.426;2022-10-17T10:57:56;98816.19;;;23.25;61.67
22104;BME280;11218;48.886;9.426;2022-10-17T11:00:28;98814.94;;;23.31;60.42
22104;BME280;11218;48.886;9.426;2022-10-17T11:03:03;98814.50;;;23.38;60.54
22104;BME280;11218;48.886;9.426;2022-10-17T11:05:43;98808.06;;;23.42;59.66
22104;BME280;11218;48.886;9.426;2022-10-17T11:08:20;98806.97;;;23.52;59.53
22104;BME280;11218;48.886;9.426;2022-10-17T11:11:05;98807.69;;;23.57;57.19
22104;BME280;11218;48.886;9.426;2022-10-17T11:13:42;98818.56;;;23.63;55.86
22104;BME280;11218;48.886;9.426;2022-10-17T11:16:26;98809.22;;;23.72;56.21
22104;BME280;11218;48.886;9.426;2022-10-17T11:19:04;98809.84;;;23.78;55.35
22104;BME280;11218;48.886;9.426;2022-10-17T11:21:42;98806.78;;;23.79;54.55
22104;BME280;11218;48.886;9.426;2022-10-17T11:24:18;98801.28;;;23.79;55.32
22104;BME280;11218;48.886;9.426;2022-10-17T11:26:52;98806.00;;;23.87;54.55
22104;BME280;11218;48.886;9.426;2022-10-17T11:29:27;98801.19;;;23.93;54.30
22104;BME280;11218;48.886;9.426;2022-10-17T11:32:00;98805.75;;;24.06;52.80
22104;BME280;11218;48.886;9.426;2022-10-17T11:34:31;98802.22;;;24.14;53.77
22104;BME280;11218;48.886;9.426;2022-10-17T11:37:14;98797.38;;;24.20;52.95
22104;BME280;11218;48.886;9.426;2022-10-17T11:39:47;98795.00;;;24.27;51.57
22104;BME280;11218;48.886;9.426;2022-10-17T11:42:20;98799.22;;;24.33;51.93
22104;BME280;11218;48.886;9.426;2022-10-17T11:44:55;98799.06;;;24.47;51.23
22104;BME280;11218;48.886;9.426;2022-10-17T11:47:33;98789.97;;;24.55;51.22
22104;BME280;11218;48.886;9.426;2022-10-17T11:50:15;98789.19;;;24.63;50.78
22104;BME280;11218;48.886;9.426;2022-10-17T11:53:10;98789.19;;;24.72;49.96
22104;BME280;11218;48.886;9.426;2022-10-17T11:55:41;98782.38;;;24.78;51.53
22104;BME280;11218;48.886;9.426;2022-10-17T11:58:31;98784.97;;;24.92;51.23
22104;BME280;11218;48.886;9.426;2022-10-17T12:01:13;98784.50;;;25.07;51.75
22104;BME280;11218;48.886;9.426;2022-10-17T12:03:52;98771.84;;;25.14;50.82
22104;BME280;11218;48.886;9.426;2022-10-17T12:06:36;98771.34;;;25.21;50.18
22104;BME280;11218;48.886;9.426;2022-10-17T12:09:10;98776.13;;;25.33;48.41
22104;BME280;11218;48.886;9.426;2022-10-17T12:11:49;98771.75;;;25.32;48.11
22104;BME280;11218;48.886;9.426;2022-10-17T12:14:49;98775.97;;;25.38;48.12
22104;BME280;11218;48.886;9.426;2022-10-17T12:17:29;98774.66;;;25.44;46.71
22104;BME280;11218;48.886;9.426;2022-10-17T12:23:31;98777.22;;;25.49;46.58
22104;BME280;11218;48.886;9.426;2022-10-17T12:26:04;98771.38;;;25.50;46.01
22104;BME280;11218;48.886;9.426;2022-10-17T12:28:40;98778.34;;;25.57;46.70
22104;BME280;11218;48.886;9.426;2022-10-17T12:31:20;98777.34;;;25.61;47.15
22104;BME280;11218;48.886;9.426;2022-10-17T12:34:00;98772.97;;;25.69;45.55
22104;BME280;11218;48.886;9.426;2022-10-17T12:36:37;98770.06;;;25.65;47.07
22104;BME280;11218;48.886;9.426;2022-10-17T12:42:30;98768.69;;;25.80;46.64
22104;BME280;11218;48.886;9.426;2022-10-17T12:48:10;98768.66;;;25.89;46.79
22104;BME280;11218;48.886;9.426;2022-10-17T12:51:03;98773.19;;;25.93;46.70
22104;BME280;11218;48.886;9.426;2022-10-17T12:53:56;98773.00;;;25.98;45.77
22104;BME280;11218;48.886;9.426;2022-10-17T12:56:34;98777.97;;;26.05;46.61
22104;BME280;11218;48.886;9.426;2022-10-17T12:59:07;98770.69;;;26.00;45.38
22104;BME280;11218;48.886;9.426;2022-10-17T13:01:38;98774.47;;;25.96;46.12
22104;BME280;11218;48.886;9.426;2022-10-17T13:04:11;98780.03;;;25.87;46.70
22104;BME280;11218;48.886;9.426;2022-10-17T13:06:45;98771.94;;;25.82;46.44
22104;BME280;11218;48.886;9.426;2022-10-17T13:09:23;98771.16;;;25.73;46.68
22104;BME280;11218;48.886;9.426;2022-10-17T13:11:53;98772.50;;;25.67;47.18
22104;BME280;11218;48.886;9.426;2022-10-17T13:14:33;98783.03;;;25.65;46.72
22104;BME280;11218;48.886;9.426;2022-10-17T13:17:20;98779.31;;;25.52;47.35
22104;BME280;11218;48.886;9.426;2022-10-17T13:19:51;98776.91;;;25.50;47.38
22104;BME280;11218;48.886;9.426;2022-10-17T13:22:21;98785.69;;;25.44;47.90
22104;BME280;11218;48.886;9.426;2022-10-17T13:24:51;98794.75;;;25.44;48.69
22104;BME280;11218;48.886;9.426;2022-10-17T13:27:23;98800.13;;;25.41;48.84
22104;BME280;11218;48.886;9.426;2022-10-17T13:29:52;98799.97;;;25.37;48.74
22104;BME280;11218;48.886;9.426;2022-10-17T13:32:24;98793.16;;;25.35;49.18
22104;BME280;11218;48.886;9.426;2022-10-17T13:35:12;98798.69;;;25.26;49.43
22104;BME280;11218;48.886;9.426;2022-10-17T13:37:45;98803.13;;;25.18;49.75
22104;BME280;11218;48.886;9.426;2022-10-17T13:40:21;98808.00;;;25.13;49.46